createdAt,value
2022-09-07T00:02:40.107Z,99.90
2022-09-07T00:05:45.885Z,99.90
2022-09-07T00:08:49.302Z,99.90
2022-09-07T00:11:52.772Z,99.90
2022-09-07T00:14:56.402Z,99.90
2022-09-07T00:17:59.842Z,99.90
2022-09-07T00:21:07.839Z,99.90
2022-09-07T00:24:11.309Z,99.90
2022-09-07T00:27:14.678Z,99.90
2022-09-07T00:30:18.233Z,99.90
2022-09-07T00:33:21.592Z,99.90
2022-09-07T00:36:26.489Z,99.90
2022-09-07T00:39:30.057Z,99.90
2022-09-07T00:42:33.605Z,99.90
2022-09-07T00:45:36.985Z,99.90
2022-09-07T00:48:46.093Z,99.90
2022-09-07T00:58:41.811Z,99.90
2022-09-07T01:11:51.146Z,99.90
2022-09-07T01:14:55.822Z,99.90
2022-09-07T01:18:06.536Z,99.90
2022-09-07T01:21:23.166Z,99.90
2022-09-07T01:24:54.237Z,99.90
2022-09-07T01:28:09.533Z,99.90
2022-09-07T01:31:21.844Z,99.90
2022-09-07T01:34:27.239Z,99.90
2022-09-07T01:37:39.580Z,99.90
2022-09-07T01:40:52.575Z,99.90
2022-09-07T01:44:03.208Z,99.90
2022-09-07T01:47:10.460Z,99.90
2022-09-07T01:50:19.548Z,99.90
2022-09-07T01:53:28.248Z,99.90
2022-09-07T01:56:36.160Z,99.90
2022-09-07T01:59:43.764Z,99.90
2022-09-07T02:02:52.593Z,99.90
2022-09-07T02:06:01.225Z,99.90
2022-09-07T02:09:08.587Z,99.90
2022-09-07T02:12:17.793Z,99.90
2022-09-07T02:15:26.195Z,99.90
2022-09-07T02:18:34.551Z,99.90
2022-09-07T02:21:41.264Z,99.90
2022-09-07T02:24:47.732Z,99.90
2022-09-07T02:27:56.146Z,99.90
2022-09-07T02:31:01.661Z,99.90
2022-09-07T02:34:05.311Z,99.90
2022-09-07T02:37:11.119Z,99.90
2022-09-07T02:40:15.019Z,99.90
2022-09-07T02:43:18.408Z,99.90
2022-09-07T02:46:36.126Z,99.90
2022-09-07T02:50:01.155Z,99.90
2022-09-07T02:53:16.545Z,99.90
2022-09-07T02:56:31.203Z,99.90
2022-09-07T02:59:49.438Z,99.90
2022-09-07T03:03:01.773Z,99.90
2022-09-07T03:06:10.964Z,99.90
2022-09-07T03:09:18.297Z,99.90
2022-09-07T03:12:22.062Z,99.90
2022-09-07T03:15:27.842Z,99.90
2022-09-07T03:18:32.807Z,99.90
2022-09-07T03:21:36.783Z,99.90
2022-09-07T03:24:40.405Z,99.90
2022-09-07T03:27:44.044Z,99.90
2022-09-07T03:31:06.375Z,99.90
2022-09-07T03:34:11.599Z,99.90
2022-09-07T03:37:15.210Z,99.90
2022-09-07T03:40:18.872Z,99.90
2022-09-07T03:43:22.237Z,99.90
2022-09-07T03:46:25.676Z,99.90
2022-09-07T03:49:30.899Z,99.90
2022-09-07T03:52:35.758Z,99.90
2022-09-07T03:55:39.880Z,99.90
2022-09-07T03:58:48.920Z,99.90
2022-09-07T04:01:52.613Z,99.90
2022-09-07T04:04:57.497Z,99.90
2022-09-07T04:08:00.822Z,99.90
2022-09-07T04:11:05.485Z,99.90
2022-09-07T04:14:09.307Z,99.90
2022-09-07T04:17:12.691Z,99.90
2022-09-07T04:20:17.638Z,99.90
2022-09-07T04:23:21.289Z,99.90
2022-09-07T04:26:27.219Z,99.90
2022-09-07T04:29:30.584Z,99.90
2022-09-07T04:32:34.072Z,99.90
2022-09-07T04:35:39.506Z,99.90
2022-09-07T04:38:45.724Z,99.90
2022-09-07T04:41:49.354Z,99.90
2022-09-07T04:44:52.688Z,99.90
2022-09-07T04:47:56.511Z,99.90
2022-09-07T04:51:07.172Z,99.90
2022-09-07T04:54:11.409Z,99.90
2022-09-07T04:57:14.958Z,99.90
2022-09-07T05:00:18.768Z,99.90
2022-09-07T05:03:22.592Z,99.90
2022-09-07T05:06:27.400Z,99.90
2022-09-07T05:09:30.878Z,99.90
2022-09-07T05:12:34.518Z,99.90
2022-09-07T05:15:38.825Z,99.90
2022-09-07T05:18:42.414Z,99.90
2022-09-07T05:21:47.385Z,99.90
2022-09-07T05:24:51.048Z,99.90
2022-09-07T05:27:54.570Z,99.90
2022-09-07T05:31:20.727Z,99.90
2022-09-07T05:34:32.206Z,99.90
2022-09-07T05:37:37.489Z,99.90
2022-09-07T05:40:41.121Z,99.90
2022-09-07T05:47:08.875Z,99.90
2022-09-07T05:50:12.390Z,99.90
2022-09-07T05:53:17.272Z,99.90
2022-09-07T05:56:20.668Z,99.90
2022-09-07T05:59:24.034Z,99.90
2022-09-07T06:02:27.490Z,99.90
2022-09-07T06:05:31.029Z,99.90
2022-09-07T06:08:37.948Z,99.90
2022-09-07T06:11:41.330Z,99.90
2022-09-07T06:14:44.718Z,99.90
2022-09-07T06:17:50.079Z,99.90
2022-09-07T06:20:53.435Z,99.90
2022-09-07T06:23:59.868Z,99.90
2022-09-07T06:27:03.310Z,99.90
2022-09-07T06:30:07.963Z,99.90
2022-09-07T06:33:11.304Z,99.90
2022-09-07T06:36:16.016Z,99.90
2022-09-07T06:39:20.837Z,99.90
2022-09-07T06:42:24.248Z,97.40
2022-09-07T06:45:29.810Z,91.90
2022-09-07T06:48:33.763Z,80.70
2022-09-07T06:51:37.198Z,77.50
2022-09-07T06:58:00.585Z,66.30
2022-09-07T07:01:07.837Z,41.80
2022-09-07T07:04:11.310Z,36.70
2022-09-07T07:07:16.260Z,17.00
2022-09-07T07:10:24.486Z,4.50
2022-09-07T07:13:28.253Z,1.00
2022-09-07T07:16:31.747Z,1.00
2022-09-07T07:19:35.167Z,1.00
2022-09-07T07:22:46.947Z,1.00
2022-09-07T07:25:51.944Z,1.00
2022-09-07T07:32:02.067Z,1.00
2022-09-07T07:35:07.518Z,1.00
2022-09-07T07:51:31.773Z,1.00
2022-09-07T07:54:54.616Z,1.00
2022-09-07T07:57:59.350Z,1.00
2022-09-07T08:01:04.537Z,1.00
2022-09-07T08:04:08.201Z,1.00
2022-09-07T08:07:13.091Z,1.00
2022-09-07T08:10:16.613Z,1.00
2022-09-07T08:13:21.794Z,1.00
2022-09-07T08:16:25.768Z,1.00
2022-09-07T08:19:29.186Z,1.00
2022-09-07T08:22:34.825Z,1.00
2022-09-07T08:25:38.278Z,1.00
2022-09-07T08:28:46.267Z,1.00
2022-09-07T08:31:49.721Z,1.00
2022-09-07T08:34:53.145Z,1.00
2022-09-07T08:37:56.472Z,1.00
2022-09-07T08:41:00.231Z,1.00
2022-09-07T08:44:11.680Z,1.00
2022-09-07T08:47:23.742Z,1.00
2022-09-07T08:50:33.784Z,1.00
2022-09-07T08:53:41.671Z,1.00
2022-09-07T09:00:16.253Z,1.00
2022-09-07T09:03:30.650Z,1.00
2022-09-07T09:06:43.787Z,1.00
2022-09-07T09:10:22.500Z,1.00
2022-09-07T09:13:37.280Z,1.00
2022-09-07T09:16:45.500Z,1.00
2022-09-07T09:20:00.292Z,1.00
2022-09-07T09:23:12.290Z,1.00
2022-09-07T09:26:21.137Z,1.00
2022-09-07T09:29:24.786Z,1.00
2022-09-07T09:32:41.535Z,1.00
2022-09-07T09:35:46.404Z,1.00
2022-09-07T09:38:49.603Z,1.00
2022-09-07T09:41:53.782Z,1.00
2022-09-07T09:45:04.819Z,1.00
2022-09-07T09:48:20.511Z,1.00
2022-09-07T09:54:53.792Z,1.00
2022-09-07T10:01:26.848Z,1.00
2022-09-07T10:04:35.184Z,1.00
2022-09-07T10:07:38.558Z,1.00
2022-09-07T10:10:55.510Z,1.00
2022-09-07T10:13:59.053Z,1.00
2022-09-07T10:17:11.491Z,1.00
2022-09-07T10:20:34.798Z,1.00
2022-09-07T10:23:38.140Z,1.00
2022-09-07T10:26:44.471Z,1.00
2022-09-07T10:29:47.846Z,1.00
2022-09-07T10:33:00.345Z,1.00
2022-09-07T10:36:11.796Z,1.00
2022-09-07T10:39:19.242Z,1.00
2022-09-07T10:42:29.344Z,1.00
2022-09-07T10:45:43.102Z,1.00
2022-09-07T10:48:57.041Z,1.00
2022-09-07T10:52:11.777Z,1.00
2022-09-07T10:55:22.326Z,1.00
2022-09-07T11:02:04.910Z,1.00
2022-09-07T11:05:19.707Z,1.00
2022-09-07T11:09:15.903Z,1.00
2022-09-07T11:12:04.426Z,1.00
2022-09-07T11:15:19.553Z,1.00
2022-09-07T11:18:27.062Z,1.00
2022-09-07T11:28:45.185Z,1.00
2022-09-07T11:31:52.843Z,1.00
2022-09-07T11:35:00.174Z,1.00
2022-09-07T11:38:13.584Z,1.00
2022-09-07T11:41:30.817Z,1.00
2022-09-07T11:44:42.718Z,1.00
2022-09-07T11:47:51.152Z,1.00
2022-09-07T11:51:01.026Z,1.00
2022-09-07T11:54:19.840Z,1.00
2022-09-07T11:57:40.866Z,1.00
2022-09-07T12:00:53.581Z,1.00
2022-09-07T12:04:24.872Z,1.00
2022-09-07T12:07:54.948Z,1.00
2022-09-07T12:11:08.396Z,1.00
2022-09-07T12:14:34.682Z,1.00
2022-09-07T12:17:49.291Z,1.00
2022-09-07T12:20:52.660Z,1.00
2022-09-07T12:23:56.094Z,1.00
2022-09-07T12:27:00.321Z,1.00
2022-09-07T12:30:50.398Z,1.00
2022-09-07T12:34:33.552Z,1.00
2022-09-07T12:37:40.219Z,1.00
2022-09-07T12:41:00.665Z,1.00
2022-09-07T12:44:11.075Z,1.00
2022-09-07T12:47:30.846Z,1.00
2022-09-07T12:50:40.107Z,1.00
2022-09-07T12:53:57.909Z,1.00
2022-09-07T13:00:53.733Z,1.00
2022-09-07T13:04:46.900Z,1.00
2022-09-07T13:08:16.305Z,1.00
2022-09-07T13:11:32.888Z,1.00
2022-09-07T13:14:39.602Z,1.00
2022-09-07T13:17:44.683Z,1.00
2022-09-07T13:21:18.897Z,1.00
2022-09-07T13:24:52.673Z,1.00
2022-09-07T13:27:58.414Z,1.00
2022-09-07T13:31:49.564Z,1.00
2022-09-07T13:35:04.791Z,1.00
2022-09-07T13:38:13.414Z,1.00
2022-09-07T13:41:22.774Z,1.00
2022-09-07T13:44:29.516Z,1.00
2022-09-07T13:47:42.592Z,1.00
2022-09-07T13:50:54.147Z,1.00
2022-09-07T13:54:04.210Z,1.00
2022-09-07T13:57:13.274Z,1.00
2022-09-07T14:00:18.480Z,1.00
2022-09-07T14:03:25.843Z,1.00
2022-09-07T14:06:35.101Z,1.00
2022-09-07T14:09:38.804Z,1.00
2022-09-07T14:12:52.320Z,1.00
2022-09-07T14:15:56.515Z,1.00
2022-09-07T14:19:00.197Z,1.00
2022-09-07T14:22:12.684Z,1.00
2022-09-07T14:25:18.956Z,1.00
2022-09-07T14:28:38.293Z,1.00
2022-09-07T14:31:41.922Z,1.00
2022-09-07T14:34:46.229Z,1.00
2022-09-07T14:38:00.750Z,1.00
2022-09-07T14:45:16.983Z,1.00
2022-09-07T14:48:31.506Z,1.00
2022-09-07T14:51:37.031Z,1.00
2022-09-07T14:54:41.535Z,1.00
2022-09-07T14:57:44.812Z,1.00
2022-09-07T15:04:32.397Z,1.00
2022-09-07T15:07:39.548Z,1.00
2022-09-07T15:11:32.799Z,1.00
2022-09-07T15:17:42.847Z,1.00
2022-09-07T15:20:47.197Z,1.00
2022-09-07T15:23:53.793Z,1.00
2022-09-07T15:27:01.866Z,1.00
2022-09-07T15:30:06.563Z,1.00
2022-09-07T15:33:11.886Z,1.00
2022-09-07T15:36:20.692Z,1.00
2022-09-07T15:39:30.316Z,1.00
2022-09-07T15:45:59.604Z,1.00
2022-09-07T15:49:04.997Z,1.00
2022-09-07T15:52:34.676Z,1.00
2022-09-07T15:55:38.719Z,1.00
2022-09-07T15:58:43.861Z,1.00
2022-09-07T16:01:52.533Z,1.00
2022-09-07T16:05:01.919Z,1.00
2022-09-07T16:11:45.421Z,1.00
2022-09-07T16:14:56.684Z,1.00
2022-09-07T16:18:01.284Z,1.00
2022-09-07T16:21:11.842Z,1.00
2022-09-07T16:24:34.101Z,1.00
2022-09-07T16:27:38.548Z,1.00
2022-09-07T16:30:59.346Z,1.00
2022-09-07T16:41:37.499Z,1.00
2022-09-07T16:44:44.803Z,1.00
2022-09-07T16:47:54.444Z,1.00
2022-09-07T16:51:01.931Z,1.00
2022-09-07T16:54:07.841Z,1.00
2022-09-07T16:57:15.551Z,1.00
2022-09-07T17:00:19.279Z,1.00
2022-09-07T17:03:22.496Z,13.10
2022-09-07T17:06:27.852Z,27.70
2022-09-07T17:09:32.881Z,32.50
2022-09-07T17:12:37.741Z,41.50
2022-09-07T17:15:40.955Z,27.20
2022-09-07T17:22:09.202Z,47.00
2022-09-07T17:25:14.272Z,55.00
2022-09-07T17:28:17.844Z,57.50
2022-09-07T17:34:49.687Z,56.40
2022-09-07T17:37:53.170Z,48.10
2022-09-07T17:40:58.048Z,61.50
2022-09-07T17:44:01.706Z,64.80
2022-09-07T17:47:05.280Z,71.20
2022-09-07T17:50:09.267Z,66.10
2022-09-07T17:53:12.627Z,72.70
2022-09-07T17:56:18.140Z,79.50
2022-09-07T18:02:46.323Z,71.00
2022-09-07T18:05:55.156Z,90.00
2022-09-07T18:09:00.078Z,93.90
2022-09-07T18:12:06.062Z,91.60
2022-09-07T18:15:14.750Z,91.60
2022-09-07T18:18:20.325Z,90.70
2022-09-07T18:21:26.508Z,94.80
2022-09-07T18:24:32.460Z,91.90
2022-09-07T18:27:39.487Z,95.70
2022-09-07T18:30:43.735Z,95.70
2022-09-07T18:33:47.741Z,91.20
2022-09-07T18:36:52.394Z,93.60
2022-09-07T18:39:56.441Z,98.30
2022-09-07T18:43:04.223Z,94.80
2022-09-07T18:46:10.604Z,95.50
2022-09-07T18:49:14.878Z,96.30
2022-09-07T18:55:42.678Z,97.60
2022-09-07T18:58:48.404Z,98.60
2022-09-07T19:01:57.617Z,99.90
2022-09-07T19:08:32.320Z,99.90
2022-09-07T19:11:37.753Z,99.90
2022-09-07T19:14:52.058Z,99.90
2022-09-07T19:17:58.918Z,99.90
2022-09-07T19:21:07.818Z,99.90
2022-09-07T19:24:15.954Z,99.90
2022-09-07T19:27:20.305Z,99.90
2022-09-07T19:30:26.348Z,99.90
2022-09-07T19:33:29.979Z,99.90
2022-09-07T19:36:36.008Z,99.90
2022-09-07T19:39:39.836Z,99.90
2022-09-07T19:42:45.185Z,99.90
2022-09-07T19:45:53.252Z,99.90
2022-09-07T19:48:58.824Z,99.90
2022-09-07T19:52:03.006Z,99.90
2022-09-07T19:55:07.561Z,99.90
2022-09-07T19:58:12.203Z,99.90
2022-09-07T20:01:25.167Z,99.90
2022-09-07T20:04:30.387Z,99.90
2022-09-07T20:07:33.973Z,99.90
2022-09-07T20:10:40.507Z,99.90
2022-09-07T20:13:45.402Z,99.90
2022-09-07T20:16:56.005Z,99.90
2022-09-07T20:20:01.702Z,99.90
2022-09-07T20:23:07.186Z,99.90
2022-09-07T20:26:15.121Z,99.90
2022-09-07T20:29:34.078Z,99.90
2022-09-07T20:32:40.268Z,99.90
2022-09-07T20:35:45.325Z,99.90
2022-09-07T20:38:50.567Z,99.90
2022-09-07T20:41:54.063Z,99.90
2022-09-07T20:44:57.403Z,99.90
2022-09-07T20:48:02.096Z,99.90
2022-09-07T20:51:09.266Z,99.90
2022-09-07T20:54:12.804Z,99.90
2022-09-07T20:57:16.063Z,99.90
2022-09-07T21:00:19.937Z,99.90
2022-09-07T21:03:25.014Z,99.90
2022-09-07T21:06:29.823Z,99.90
2022-09-07T21:09:33.084Z,99.90
2022-09-07T21:12:37.085Z,99.90
2022-09-07T21:15:40.694Z,99.90
2022-09-07T21:18:45.885Z,99.90
2022-09-07T21:21:49.385Z,99.90
2022-09-07T21:24:52.653Z,99.90
2022-09-07T21:27:55.995Z,99.90
2022-09-07T21:31:00.392Z,99.90
2022-09-07T21:34:05.300Z,99.90
2022-09-07T21:37:08.614Z,99.90
2022-09-07T21:40:12.507Z,99.90
2022-09-07T21:43:17.127Z,99.90
2022-09-07T21:46:20.810Z,99.90
2022-09-07T21:49:25.606Z,99.90
2022-09-07T21:52:28.810Z,99.90
2022-09-07T21:55:31.985Z,99.90
2022-09-07T21:58:35.832Z,99.90
2022-09-07T22:01:39.151Z,99.90
2022-09-07T22:04:43.869Z,99.90
2022-09-07T22:07:47.201Z,99.90
2022-09-07T22:10:50.475Z,99.90
2022-09-07T22:13:55.853Z,99.90
2022-09-07T22:16:59.519Z,99.90
2022-09-07T22:20:04.829Z,99.90
2022-09-07T22:23:08.193Z,99.90
2022-09-07T22:26:11.662Z,99.90
2022-09-07T22:29:14.913Z,99.90
2022-09-07T22:32:18.222Z,99.90
2022-09-07T22:35:24.883Z,99.90
2022-09-07T22:38:29.126Z,99.90
2022-09-07T22:41:34.402Z,99.90
2022-09-07T22:44:38.923Z,99.90
2022-09-07T22:47:43.288Z,99.90
2022-09-07T22:50:55.705Z,99.90
2022-09-07T22:53:59.526Z,99.90
2022-09-07T22:57:02.820Z,99.90
2022-09-07T23:00:07.460Z,99.90
2022-09-07T23:03:10.829Z,99.90
2022-09-07T23:06:30.905Z,99.90
2022-09-07T23:09:34.193Z,99.90
2022-09-07T23:12:37.498Z,99.90
2022-09-07T23:15:40.810Z,99.90
2022-09-07T23:18:44.087Z,99.90
2022-09-07T23:21:48.925Z,99.90
2022-09-07T23:24:52.256Z,99.90
2022-09-07T23:27:55.475Z,99.90
2022-09-07T23:30:59.144Z,99.90
2022-09-07T23:34:03.015Z,99.90
2022-09-07T23:37:07.603Z,99.90
2022-09-07T23:40:11.634Z,99.90
2022-09-07T23:43:14.904Z,99.90
2022-09-07T23:46:18.241Z,99.90
2022-09-07T23:49:21.487Z,99.90
2022-09-07T23:52:26.064Z,99.90
2022-09-07T23:55:29.796Z,99.90
2022-09-07T23:58:32.962Z,99.90
